Main page
METAR-TAF:

METAR-TAF

Airports :

Tallinn Airport

Tallinn, Estonia

latitude: 59-23N, longitude: 024-35E, elevation: 44 m

Current weather observation

The report was made 37 minutes ago, at 03:50 UTC
Wind 4 kt from the Northwest, varying between West and North
Temperature 12°C
Humidity 76%
Pressure 1030 hPa
Visibility 10 km or more
no clouds below 1500 m and no cumulonimbus

METAR: EETN 260350Z 31004KT 280V010 CAVOK 12/08 Q1030 NOSIG

Time: 07:27 (04:27 UTC)

Forecast

The report was made 4 hours and 57 minutes ago, at 23:30 UTC
Forecast valid from 26 at 00 UTC to 26 at 24 UTC
Wind 5 kt from the West
Visibility 10 km or more
no clouds below 1500 m and no cumulonimbus
Probability 40% :
Temporary
from 26 at 00 UTC to 26 at 04 UTC
Visibility: 0800 m
Broken clouds at a height of 300 ft
patches of fog
Temporary
from 26 at 07 UTC to 26 at 15 UTC
Wind 10 kt from the Northwest

TAF: EETN 252330Z 2600/2624 26005KT CAVOK PROB40 TEMPO 2600/2604 0800 BCFG BKN003 TEMPO 2607/2615 32010KT

Weather observations and forecasts of more than 4000 airports (METAR and TAF reports).

The available stations are represented by yellow and red dots on the map.

Hover mouse over dot to see the name of the station.

Then click to see weather observations and forecasts.

To change the map : click on the green buttons with a black cross to zoom in, on the green button with a dash to zoom out, or on the green arrows for adjacent maps.


METAR-TAF: